sensor_id;sensor_type;location;lat;lon;timestamp;temperature;humidity
18712;DHT22;9485;49.386;8.674;2023-04-03T00:03:15;7.50;90.80
18712;DHT22;9485;49.386;8.674;2023-04-03T00:08:37;7.50;90.90
18712;DHT22;9485;49.386;8.674;2023-04-03T00:13:59;7.40;91.10
18712;DHT22;9485;49.386;8.674;2023-04-03T00:19:21;7.30;91.20
18712;DHT22;9485;49.386;8.674;2023-04-03T00:24:41;7.30;91.20
18712;DHT22;9485;49.386;8.674;2023-04-03T00:30:03;7.70;91.40
18712;DHT22;9485;49.386;8.674;2023-04-03T00:35:26;7.10;91.30
18712;DHT22;9485;49.386;8.674;2023-04-03T00:40:48;7.00;91.20
18712;DHT22;9485;49.386;8.674;2023-04-03T00:46:09;6.90;91.20
18712;DHT22;9485;49.386;8.674;2023-04-03T00:51:31;6.80;91.10
18712;DHT22;9485;49.386;8.674;2023-04-03T00:56:53;6.80;91.10
18712;DHT22;9485;49.386;8.674;2023-04-03T01:02:16;6.80;91.40
18712;DHT22;9485;49.386;8.674;2023-04-03T01:07:40;6.70;91.40
18712;DHT22;9485;49.386;8.674;2023-04-03T01:13:00;6.70;91.40
18712;DHT22;9485;49.386;8.674;2023-04-03T01:18:24;6.60;91.50
18712;DHT22;9485;49.386;8.674;2023-04-03T01:23:58;6.60;91.30
18712;DHT22;9485;49.386;8.674;2023-04-03T01:29:33;6.50;91.20
18712;DHT22;9485;49.386;8.674;2023-04-03T01:34:55;6.50;91.50
18712;DHT22;9485;49.386;8.674;2023-04-03T01:40:17;6.40;91.50
18712;DHT22;9485;49.386;8.674;2023-04-03T01:45:39;6.30;91.50
18712;DHT22;9485;49.386;8.674;2023-04-03T01:51:01;6.30;91.60
18712;DHT22;9485;49.386;8.674;2023-04-03T01:56:22;6.30;91.50
18712;DHT22;9485;49.386;8.674;2023-04-03T02:01:43;6.20;91.50
18712;DHT22;9485;49.386;8.674;2023-04-03T02:07:07;6.20;91.80
18712;DHT22;9485;49.386;8.674;2023-04-03T02:12:27;6.30;91.90
18712;DHT22;9485;49.386;8.674;2023-04-03T02:17:48;6.30;92.00
18712;DHT22;9485;49.386;8.674;2023-04-03T02:23:10;6.40;92.20
18712;DHT22;9485;49.386;8.674;2023-04-03T02:28:31;6.50;92.40
18712;DHT22;9485;49.386;8.674;2023-04-03T02:33:52;6.60;92.40
18712;DHT22;9485;49.386;8.674;2023-04-03T02:39:15;6.60;92.40
18712;DHT22;9485;49.386;8.674;2023-04-03T02:44:36;6.70;92.20
18712;DHT22;9485;49.386;8.674;2023-04-03T02:49:56;7.20;92.40
18712;DHT22;9485;49.386;8.674;2023-04-03T02:55:19;6.90;92.10
18712;DHT22;9485;49.386;8.674;2023-04-03T03:00:42;6.90;92.00
18712;DHT22;9485;49.386;8.674;2023-04-03T03:06:05;6.80;92.20
18712;DHT22;9485;49.386;8.674;2023-04-03T03:11:29;6.80;91.60
18712;DHT22;9485;49.386;8.674;2023-04-03T03:16:50;6.70;91.50
18712;DHT22;9485;49.386;8.674;2023-04-03T03:22:11;6.60;91.50
18712;DHT22;9485;49.386;8.674;2023-04-03T03:27:32;6.60;91.40
18712;DHT22;9485;49.386;8.674;2023-04-03T03:32:53;6.50;91.10
18712;DHT22;9485;49.386;8.674;2023-04-03T03:38:14;5.70;91.00
18712;DHT22;9485;49.386;8.674;2023-04-03T03:43:35;6.30;91.10
18712;DHT22;9485;49.386;8.674;2023-04-03T03:48:59;6.20;91.30
18712;DHT22;9485;49.386;8.674;2023-04-03T03:54:21;6.10;91.20
18712;DHT22;9485;49.386;8.674;2023-04-03T03:59:44;6.00;91.20
18712;DHT22;9485;49.386;8.674;2023-04-03T04:05:05;6.00;91.40
18712;DHT22;9485;49.386;8.674;2023-04-03T04:10:26;5.90;91.50
18712;DHT22;9485;49.386;8.674;2023-04-03T04:15:50;5.90;91.60
18712;DHT22;9485;49.386;8.674;2023-04-03T04:21:10;5.90;91.50
18712;DHT22;9485;49.386;8.674;2023-04-03T04:26:32;5.80;91.60
18712;DHT22;9485;49.386;8.674;2023-04-03T04:31:55;5.80;91.60
18712;DHT22;9485;49.386;8.674;2023-04-03T04:37:16;5.70;91.60
18712;DHT22;9485;49.386;8.674;2023-04-03T04:42:40;5.70;91.70
18712;DHT22;9485;49.386;8.674;2023-04-03T04:48:02;5.70;91.80
18712;DHT22;9485;49.386;8.674;2023-04-03T04:53:24;5.60;91.80
18712;DHT22;9485;49.386;8.674;2023-04-03T04:58:45;5.60;91.70
18712;DHT22;9485;49.386;8.674;2023-04-03T05:04:07;5.60;91.70
18712;DHT22;9485;49.386;8.674;2023-04-03T05:09:28;5.60;91.70
18712;DHT22;9485;49.386;8.674;2023-04-03T05:14:49;5.60;92.00
18712;DHT22;9485;49.386;8.674;2023-04-03T05:20:12;5.60;92.00
18712;DHT22;9485;49.386;8.674;2023-04-03T05:25:34;5.70;92.10
18712;DHT22;9485;49.386;8.674;2023-04-03T05:30:58;5.70;92.10
18712;DHT22;9485;49.386;8.674;2023-04-03T05:36:27;5.70;92.10
18712;DHT22;9485;49.386;8.674;2023-04-03T05:41:53;5.70;92.10
18712;DHT22;9485;49.386;8.674;2023-04-03T05:47:15;5.80;92.10
18712;DHT22;9485;49.386;8.674;2023-04-03T05:52:40;5.80;92.30
18712;DHT22;9485;49.386;8.674;2023-04-03T05:58:05;5.90;92.50
18712;DHT22;9485;49.386;8.674;2023-04-03T06:03:26;6.00;92.70
18712;DHT22;9485;49.386;8.674;2023-04-03T06:08:49;6.10;92.80
18712;DHT22;9485;49.386;8.674;2023-04-03T06:14:11;6.20;92.90
18712;DHT22;9485;49.386;8.674;2023-04-03T06:19:32;6.30;92.90
18712;DHT22;9485;49.386;8.674;2023-04-03T06:24:55;6.50;93.20
18712;DHT22;9485;49.386;8.674;2023-04-03T06:30:16;6.70;93.30
18712;DHT22;9485;49.386;8.674;2023-04-03T06:35:37;6.90;93.30
18712;DHT22;9485;49.386;8.674;2023-04-03T06:40:59;7.20;93.90
18712;DHT22;9485;49.386;8.674;2023-04-03T06:46:21;7.70;94.10
18712;DHT22;9485;49.386;8.674;2023-04-03T06:51:43;8.30;94.20
18712;DHT22;9485;49.386;8.674;2023-04-03T06:57:05;8.90;94.00
18712;DHT22;9485;49.386;8.674;2023-04-03T07:02:27;9.40;93.80
18712;DHT22;9485;49.386;8.674;2023-04-03T07:07:48;10.00;93.80
18712;DHT22;9485;49.386;8.674;2023-04-03T07:13:11;10.60;93.50
18712;DHT22;9485;49.386;8.674;2023-04-03T07:18:32;11.30;93.50
18712;DHT22;9485;49.386;8.674;2023-04-03T07:23:52;12.00;93.00
18712;DHT22;9485;49.386;8.674;2023-04-03T07:29:15;12.60;92.50
18712;DHT22;9485;49.386;8.674;2023-04-03T07:34:36;13.20;91.00
18712;DHT22;9485;49.386;8.674;2023-04-03T07:39:57;13.70;91.30
18712;DHT22;9485;49.386;8.674;2023-04-03T07:45:19;14.20;91.20
18712;DHT22;9485;49.386;8.674;2023-04-03T07:50:42;14.80;90.50
18712;DHT22;9485;49.386;8.674;2023-04-03T07:56:03;15.30;90.90
18712;DHT22;9485;49.386;8.674;2023-04-03T08:01:26;15.90;90.80
18712;DHT22;9485;49.386;8.674;2023-04-03T08:06:46;16.50;90.60
18712;DHT22;9485;49.386;8.674;2023-04-03T08:12:07;17.20;90.90
18712;DHT22;9485;49.386;8.674;2023-04-03T08:17:31;17.90;90.40
18712;DHT22;9485;49.386;8.674;2023-04-03T08:22:53;18.50;86.20
18712;DHT22;9485;49.386;8.674;2023-04-03T08:28:15;19.00;84.10
18712;DHT22;9485;49.386;8.674;2023-04-03T08:33:38;19.30;82.90
18712;DHT22;9485;49.386;8.674;2023-04-03T08:39:00;19.40;78.10
18712;DHT22;9485;49.386;8.674;2023-04-03T08:44:26;18.80;74.80
18712;DHT22;9485;49.386;8.674;2023-04-03T08:50:00;18.00;74.10
18712;DHT22;9485;49.386;8.674;2023-04-03T08:55:25;17.50;76.10
18712;DHT22;9485;49.386;8.674;2023-04-03T09:00:50;17.30;78.50
18712;DHT22;9485;49.386;8.674;2023-04-03T09:06:18;17.00;74.10
18712;DHT22;9485;49.386;8.674;2023-04-03T09:11:49;16.80;76.60
18712;DHT22;9485;49.386;8.674;2023-04-03T09:17:24;16.40;75.70
18712;DHT22;9485;49.386;8.674;2023-04-03T09:22:53;16.20;75.20
18712;DHT22;9485;49.386;8.674;2023-04-03T09:28:15;16.20;78.40
18712;DHT22;9485;49.386;8.674;2023-04-03T09:33:35;16.10;77.60
18712;DHT22;9485;49.386;8.674;2023-04-03T09:39:04;15.70;76.40
18712;DHT22;9485;49.386;8.674;2023-04-03T09:44:29;15.40;76.00
18712;DHT22;9485;49.386;8.674;2023-04-03T09:50:10;15.70;82.70
18712;DHT22;9485;49.386;8.674;2023-04-03T09:55:44;16.40;79.30
18712;DHT22;9485;49.386;8.674;2023-04-03T10:01:06;16.90;82.40
18712;DHT22;9485;49.386;8.674;2023-04-03T10:06:42;17.70;86.50
18712;DHT22;9485;49.386;8.674;2023-04-03T10:12:08;18.80;81.90
18712;DHT22;9485;49.386;8.674;2023-04-03T10:17:47;19.50;77.90
18712;DHT22;9485;49.386;8.674;2023-04-03T10:23:17;19.50;73.40
18712;DHT22;9485;49.386;8.674;2023-04-03T10:28:46;19.60;76.40
18712;DHT22;9485;49.386;8.674;2023-04-03T10:34:21;20.20;78.40
18712;DHT22;9485;49.386;8.674;2023-04-03T10:39:50;20.90;75.90
18712;DHT22;9485;49.386;8.674;2023-04-03T10:45:21;21.00;74.20
18712;DHT22;9485;49.386;8.674;2023-04-03T10:50:52;20.60;68.70
18712;DHT22;9485;49.386;8.674;2023-04-03T10:56:24;19.80;68.20
18712;DHT22;9485;49.386;8.674;2023-04-03T11:01:55;19.10;68.90
18712;DHT22;9485;49.386;8.674;2023-04-03T11:07:21;18.70;70.50
18712;DHT22;9485;49.386;8.674;2023-04-03T11:12:48;18.50;72.90
18712;DHT22;9485;49.386;8.674;2023-04-03T11:18:18;18.30;70.70
18712;DHT22;9485;49.386;8.674;2023-04-03T11:23:41;18.30;70.00
18712;DHT22;9485;49.386;8.674;2023-04-03T11:29:08;18.40;70.10
18712;DHT22;9485;49.386;8.674;2023-04-03T11:34:36;18.70;71.90
18712;DHT22;9485;49.386;8.674;2023-04-03T11:40:04;19.00;70.10
18712;DHT22;9485;49.386;8.674;2023-04-03T11:45:37;18.70;67.40
18712;DHT22;9485;49.386;8.674;2023-04-03T11:51:42;18.20;67.40
18712;DHT22;9485;49.386;8.674;2023-04-03T11:57:45;17.50;66.30
18712;DHT22;9485;49.386;8.674;2023-04-03T12:21:12;15.50;70.30
18712;DHT22;9485;49.386;8.674;2023-04-03T12:26:43;15.10;70.90
18712;DHT22;9485;49.386;8.674;2023-04-03T12:32:19;14.80;71.60
18712;DHT22;9485;49.386;8.674;2023-04-03T12:44:37;14.60;69.40
18712;DHT22;9485;49.386;8.674;2023-04-03T12:50:13;14.80;74.00
18712;DHT22;9485;49.386;8.674;2023-04-03T12:55:40;15.30;76.80
18712;DHT22;9485;49.386;8.674;2023-04-03T13:01:08;16.00;79.10
18712;DHT22;9485;49.386;8.674;2023-04-03T13:06:36;16.60;75.10
18712;DHT22;9485;49.386;8.674;2023-04-03T13:12:02;16.80;72.90
18712;DHT22;9485;49.386;8.674;2023-04-03T13:17:32;16.60;69.90
18712;DHT22;9485;49.386;8.674;2023-04-03T13:23:01;16.30;71.40
18712;DHT22;9485;49.386;8.674;2023-04-03T13:28:24;16.10;72.20
18712;DHT22;9485;49.386;8.674;2023-04-03T13:33:55;15.80;72.10
18712;DHT22;9485;49.386;8.674;2023-04-03T13:39:23;15.50;70.70
18712;DHT22;9485;49.386;8.674;2023-04-03T13:44:46;15.30;73.00
18712;DHT22;9485;49.386;8.674;2023-04-03T13:50:17;15.40;74.80
18712;DHT22;9485;49.386;8.674;2023-04-03T13:55:55;15.50;71.10
18712;DHT22;9485;49.386;8.674;2023-04-03T14:01:22;15.40;70.80
18712;DHT22;9485;49.386;8.674;2023-04-03T14:06:48;15.20;72.90
18712;DHT22;9485;49.386;8.674;2023-04-03T14:12:16;15.20;75.00
18712;DHT22;9485;49.386;8.674;2023-04-03T14:17:39;15.50;75.00
18712;DHT22;9485;49.386;8.674;2023-04-03T14:23:02;16.00;74.30
18712;DHT22;9485;49.386;8.674;2023-04-03T14:28:24;16.20;73.10
18712;DHT22;9485;49.386;8.674;2023-04-03T14:33:45;16.10;73.50
18712;DHT22;9485;49.386;8.674;2023-04-03T14:39:11;15.90;72.40
18712;DHT22;9485;49.386;8.674;2023-04-03T14:44:36;15.70;71.90
18712;DHT22;9485;49.386;8.674;2023-04-03T14:49:57;15.70;74.40
18712;DHT22;9485;49.386;8.674;2023-04-03T14:55:22;15.90;74.20
18712;DHT22;9485;49.386;8.674;2023-04-03T15:00:44;16.00;74.20
18712;DHT22;9485;49.386;8.674;2023-04-03T15:06:04;16.00;71.20
18712;DHT22;9485;49.386;8.674;2023-04-03T15:11:27;16.00;70.70
18712;DHT22;9485;49.386;8.674;2023-04-03T15:16:48;15.80;68.40
18712;DHT22;9485;49.386;8.674;2023-04-03T15:22:13;15.70;70.70
18712;DHT22;9485;49.386;8.674;2023-04-03T15:27:37;15.60;69.30
18712;DHT22;9485;49.386;8.674;2023-04-03T15:32:59;15.40;70.20
18712;DHT22;9485;49.386;8.674;2023-04-03T15:38:20;15.30;71.50
18712;DHT22;9485;49.386;8.674;2023-04-03T15:43:43;15.20;70.30
18712;DHT22;9485;49.386;8.674;2023-04-03T15:49:04;15.10;69.40
18712;DHT22;9485;49.386;8.674;2023-04-03T15:54:31;14.90;69.60
18712;DHT22;9485;49.386;8.674;2023-04-03T15:59:54;14.80;69.60
18712;DHT22;9485;49.386;8.674;2023-04-03T16:05:16;14.60;70.10
18712;DHT22;9485;49.386;8.674;2023-04-03T16:10:38;14.50;70.50
18712;DHT22;9485;49.386;8.674;2023-04-03T16:16:01;14.30;70.90
18712;DHT22;9485;49.386;8.674;2023-04-03T16:21:23;14.10;71.00
18712;DHT22;9485;49.386;8.674;2023-04-03T16:26:44;14.20;71.70
18712;DHT22;9485;49.386;8.674;2023-04-03T16:32:07;14.20;70.10
18712;DHT22;9485;49.386;8.674;2023-04-03T16:37:28;14.10;70.50
18712;DHT22;9485;49.386;8.674;2023-04-03T16:42:50;14.00;70.40
18712;DHT22;9485;49.386;8.674;2023-04-03T16:48:12;13.80;70.30
18712;DHT22;9485;49.386;8.674;2023-04-03T16:53:33;13.60;70.10
18712;DHT22;9485;49.386;8.674;2023-04-03T16:58:55;13.30;70.10
18712;DHT22;9485;49.386;8.674;2023-04-03T17:04:17;13.10;69.70
18712;DHT22;9485;49.386;8.674;2023-04-03T17:09:41;12.80;69.50
18712;DHT22;9485;49.386;8.674;2023-04-03T17:15:02;12.70;70.60
18712;DHT22;9485;49.386;8.674;2023-04-03T17:20:25;12.40;70.40
18712;DHT22;9485;49.386;8.674;2023-04-03T17:25:46;12.20;70.10
18712;DHT22;9485;49.386;8.674;2023-04-03T17:31:07;12.00;69.90
18712;DHT22;9485;49.386;8.674;2023-04-03T17:36:30;11.90;69.50
18712;DHT22;9485;49.386;8.674;2023-04-03T17:41:51;11.70;69.50
18712;DHT22;9485;49.386;8.674;2023-04-03T17:47:13;11.50;70.00
18712;DHT22;9485;49.386;8.674;2023-04-03T17:52:42;11.40;70.70
18712;DHT22;9485;49.386;8.674;2023-04-03T17:58:03;11.20;70.50
18712;DHT22;9485;49.386;8.674;2023-04-03T18:03:24;11.10;71.20
18712;DHT22;9485;49.386;8.674;2023-04-03T18:08:48;10.90;71.50
18712;DHT22;9485;49.386;8.674;2023-04-03T18:14:12;10.80;71.10
18712;DHT22;9485;49.386;8.674;2023-04-03T18:19:36;10.60;71.50
18712;DHT22;9485;49.386;8.674;2023-04-03T18:24:58;10.50;72.80
18712;DHT22;9485;49.386;8.674;2023-04-03T18:30:21;10.40;72.60
18712;DHT22;9485;49.386;8.674;2023-04-03T18:35:44;10.20;72.40
18712;DHT22;9485;49.386;8.674;2023-04-03T18:41:07;10.10;72.80
18712;DHT22;9485;49.386;8.674;2023-04-03T18:46:28;10.00;72.70
18712;DHT22;9485;49.386;8.674;2023-04-03T18:51:50;9.80;73.30
18712;DHT22;9485;49.386;8.674;2023-04-03T18:57:12;9.70;73.50
18712;DHT22;9485;49.386;8.674;2023-04-03T19:02:33;9.60;73.10
18712;DHT22;9485;49.386;8.674;2023-04-03T19:07:55;9.50;73.60
18712;DHT22;9485;49.386;8.674;2023-04-03T19:13:18;9.40;73.20
18712;DHT22;9485;49.386;8.674;2023-04-03T19:18:38;9.30;73.00
18712;DHT22;9485;49.386;8.674;2023-04-03T19:23:59;9.20;72.90
18712;DHT22;9485;49.386;8.674;2023-04-03T19:29:21;9.20;73.60
18712;DHT22;9485;49.386;8.674;2023-04-03T19:34:42;9.10;72.90
18712;DHT22;9485;49.386;8.674;2023-04-03T19:40:04;9.10;73.30
18712;DHT22;9485;49.386;8.674;2023-04-03T19:45:27;9.10;73.60
18712;DHT22;9485;49.386;8.674;2023-04-03T19:50:48;9.00;73.00
18712;DHT22;9485;49.386;8.674;2023-04-03T19:56:09;9.00;73.70
18712;DHT22;9485;49.386;8.674;2023-04-03T20:01:32;9.00;73.60
18712;DHT22;9485;49.386;8.674;2023-04-03T20:06:53;8.90;73.80
18712;DHT22;9485;49.386;8.674;2023-04-03T20:12:14;8.80;74.10
18712;DHT22;9485;49.386;8.674;2023-04-03T20:17:37;8.80;73.90
18712;DHT22;9485;49.386;8.674;2023-04-03T20:22:58;8.60;73.70
18712;DHT22;9485;49.386;8.674;2023-04-03T20:28:19;8.50;74.20
18712;DHT22;9485;49.386;8.674;2023-04-03T20:33:42;8.40;74.30
18712;DHT22;9485;49.386;8.674;2023-04-03T20:39:03;8.40;74.30
18712;DHT22;9485;49.386;8.674;2023-04-03T20:44:24;8.30;74.60
18712;DHT22;9485;49.386;8.674;2023-04-03T20:49:46;8.30;74.30
18712;DHT22;9485;49.386;8.674;2023-04-03T20:55:07;8.20;72.40
18712;DHT22;9485;49.386;8.674;2023-04-03T21:00:29;8.10;73.00
18712;DHT22;9485;49.386;8.674;2023-04-03T21:22:58;7.90;72.80
18712;DHT22;9485;49.386;8.674;2023-04-03T21:28:19;7.90;73.10
18712;DHT22;9485;49.386;8.674;2023-04-03T21:33:39;7.80;73.80
18712;DHT22;9485;49.386;8.674;2023-04-03T21:39:01;7.60;73.70
18712;DHT22;9485;49.386;8.674;2023-04-03T21:44:23;7.70;74.30
18712;DHT22;9485;49.386;8.674;2023-04-03T21:49:45;7.60;74.30
18712;DHT22;9485;49.386;8.674;2023-04-03T21:55:08;7.60;73.30
18712;DHT22;9485;49.386;8.674;2023-04-03T22:00:29;7.50;74.10
18712;DHT22;9485;49.386;8.674;2023-04-03T22:05:51;7.50;74.90
18712;DHT22;9485;49.386;8.674;2023-04-03T22:11:14;7.50;73.90
18712;DHT22;9485;49.386;8.674;2023-04-03T22:16:36;7.40;72.30
18712;DHT22;9485;49.386;8.674;2023-04-03T22:21:58;7.40;73.30
18712;DHT22;9485;49.386;8.674;2023-04-03T22:27:23;7.40;73.50
18712;DHT22;9485;49.386;8.674;2023-04-03T22:32:44;7.20;72.60
18712;DHT22;9485;49.386;8.674;2023-04-03T22:38:05;7.20;73.20
18712;DHT22;9485;49.386;8.674;2023-04-03T22:43:28;7.10;74.10
18712;DHT22;9485;49.386;8.674;2023-04-03T22:48:50;7.10;73.90
18712;DHT22;9485;49.386;8.674;2023-04-03T22:54:11;7.10;74.40
18712;DHT22;9485;49.386;8.674;2023-04-03T22:59:33;7.00;72.20
18712;DHT22;9485;49.386;8.674;2023-04-03T23:04:53;7.00;73.10
18712;DHT22;9485;49.386;8.674;2023-04-03T23:10:14;7.00;73.30
18712;DHT22;9485;49.386;8.674;2023-04-03T23:15:37;6.90;74.30
18712;DHT22;9485;49.386;8.674;2023-04-03T23:20:58;6.90;74.00
18712;DHT22;9485;49.386;8.674;2023-04-03T23:26:21;7.60;73.40
18712;DHT22;9485;49.386;8.674;2023-04-03T23:31:43;6.80;73.30
18712;DHT22;9485;49.386;8.674;2023-04-03T23:37:04;6.70;73.10
18712;DHT22;9485;49.386;8.674;2023-04-03T23:42:25;6.70;72.80
18712;DHT22;9485;49.386;8.674;2023-04-03T23:47:48;6.70;74.20
18712;DHT22;9485;49.386;8.674;2023-04-03T23:53:09;6.60;73.80
18712;DHT22;9485;49.386;8.674;2023-04-03T23:58:30;6.60;73.60
